sensor_id;sensor_type;location;lat;lon;timestamp;P1;durP1;ratioP1;P2;durP2;ratioP2
3918;SDS011;1974;48.670;8.994;2022-07-29T00:00:49;1.63;;;1.00;;
3918;SDS011;1974;48.670;8.994;2022-07-29T00:03:16;1.53;;;0.90;;
3918;SDS011;1974;48.670;8.994;2022-07-29T00:05:43;1.23;;;1.07;;
3918;SDS011;1974;48.670;8.994;2022-07-29T00:08:11;3.30;;;1.13;;
3918;SDS011;1974;48.670;8.994;2022-07-29T00:10:38;6.50;;;1.40;;
3918;SDS011;1974;48.670;8.994;2022-07-29T00:13:05;1.90;;;1.03;;
3918;SDS011;1974;48.670;8.994;2022-07-29T00:15:31;1.80;;;1.23;;
3918;SDS011;1974;48.670;8.994;2022-07-29T00:17:58;1.17;;;1.17;;
3918;SDS011;1974;48.670;8.994;2022-07-29T00:20:25;2.00;;;1.30;;
3918;SDS011;1974;48.670;8.994;2022-07-29T00:22:51;1.93;;;0.97;;
3918;SDS011;1974;48.670;8.994;2022-07-29T00:25:19;1.27;;;0.90;;
3918;SDS011;1974;48.670;8.994;2022-07-29T00:27:46;1.97;;;1.00;;
3918;SDS011;1974;48.670;8.994;2022-07-29T00:30:13;1.17;;;1.00;;
3918;SDS011;1974;48.670;8.994;2022-07-29T00:32:40;1.27;;;0.80;;
3918;SDS011;1974;48.670;8.994;2022-07-29T00:35:07;1.10;;;1.00;;
3918;SDS011;1974;48.670;8.994;2022-07-29T00:37:52;1.47;;;1.37;;
3918;SDS011;1974;48.670;8.994;2022-07-29T00:40:20;2.07;;;1.63;;
3918;SDS011;1974;48.670;8.994;2022-07-29T00:42:48;1.43;;;1.10;;
3918;SDS011;1974;48.670;8.994;2022-07-29T00:45:16;1.93;;;1.33;;
3918;SDS011;1974;48.670;8.994;2022-07-29T00:47:43;2.00;;;0.93;;
3918;SDS011;1974;48.670;8.994;2022-07-29T00:50:11;1.20;;;0.93;;
3918;SDS011;1974;48.670;8.994;2022-07-29T00:52:39;1.13;;;1.00;;
3918;SDS011;1974;48.670;8.994;2022-07-29T00:55:07;1.10;;;0.90;;
3918;SDS011;1974;48.670;8.994;2022-07-29T00:57:37;1.27;;;1.17;;
3918;SDS011;1974;48.670;8.994;2022-07-29T01:00:05;1.10;;;1.00;;
3918;SDS011;1974;48.670;8.994;2022-07-29T01:02:34;0.90;;;0.80;;
3918;SDS011;1974;48.670;8.994;2022-07-29T01:05:01;7.70;;;1.67;;
3918;SDS011;1974;48.670;8.994;2022-07-29T01:07:28;1.50;;;1.30;;
3918;SDS011;1974;48.670;8.994;2022-07-29T01:09:56;2.50;;;1.77;;
3918;SDS011;1974;48.670;8.994;2022-07-29T01:12:24;3.53;;;1.00;;
3918;SDS011;1974;48.670;8.994;2022-07-29T01:14:54;1.73;;;1.20;;
3918;SDS011;1974;48.670;8.994;2022-07-29T01:17:23;1.53;;;0.93;;
3918;SDS011;1974;48.670;8.994;2022-07-29T01:19:54;1.70;;;1.33;;
3918;SDS011;1974;48.670;8.994;2022-07-29T01:22:28;1.23;;;1.13;;
3918;SDS011;1974;48.670;8.994;2022-07-29T01:25:03;2.07;;;1.77;;
3918;SDS011;1974;48.670;8.994;2022-07-29T01:27:52;1.30;;;0.93;;
3918;SDS011;1974;48.670;8.994;2022-07-29T01:30:41;3.03;;;1.30;;
3918;SDS011;1974;48.670;8.994;2022-07-29T01:33:11;1.30;;;1.13;;
3918;SDS011;1974;48.670;8.994;2022-07-29T01:35:57;1.53;;;0.90;;
3918;SDS011;1974;48.670;8.994;2022-07-29T01:38:27;1.27;;;1.17;;
3918;SDS011;1974;48.670;8.994;2022-07-29T01:40:58;2.00;;;1.53;;
3918;SDS011;1974;48.670;8.994;2022-07-29T01:43:31;1.40;;;1.30;;
3918;SDS011;1974;48.670;8.994;2022-07-29T01:46:05;0.90;;;0.90;;
3918;SDS011;1974;48.670;8.994;2022-07-29T01:48:38;0.90;;;0.80;;
3918;SDS011;1974;48.670;8.994;2022-07-29T01:51:11;1.73;;;1.63;;
3918;SDS011;1974;48.670;8.994;2022-07-29T01:53:44;1.00;;;0.80;;
3918;SDS011;1974;48.670;8.994;2022-07-29T01:56:16;2.50;;;1.13;;
3918;SDS011;1974;48.670;8.994;2022-07-29T01:58:45;1.13;;;0.90;;
3918;SDS011;1974;48.670;8.994;2022-07-29T02:01:15;0.80;;;0.60;;
3918;SDS011;1974;48.670;8.994;2022-07-29T02:03:44;1.30;;;0.63;;
3918;SDS011;1974;48.670;8.994;2022-07-29T02:06:12;3.57;;;1.10;;
3918;SDS011;1974;48.670;8.994;2022-07-29T02:08:43;0.73;;;0.73;;
3918;SDS011;1974;48.670;8.994;2022-07-29T02:11:11;0.90;;;0.80;;
3918;SDS011;1974;48.670;8.994;2022-07-29T02:13:38;1.57;;;0.70;;
3918;SDS011;1974;48.670;8.994;2022-07-29T02:16:07;3.63;;;1.00;;
3918;SDS011;1974;48.670;8.994;2022-07-29T02:18:37;0.80;;;0.80;;
3918;SDS011;1974;48.670;8.994;2022-07-29T02:21:07;0.70;;;0.70;;
3918;SDS011;1974;48.670;8.994;2022-07-29T02:23:34;1.33;;;0.77;;
3918;SDS011;1974;48.670;8.994;2022-07-29T02:26:03;2.10;;;0.80;;
3918;SDS011;1974;48.670;8.994;2022-07-29T02:28:31;0.80;;;0.80;;
3918;SDS011;1974;48.670;8.994;2022-07-29T02:31:00;0.97;;;0.97;;
3918;SDS011;1974;48.670;8.994;2022-07-29T02:33:29;0.90;;;0.80;;
3918;SDS011;1974;48.670;8.994;2022-07-29T02:35:59;2.07;;;0.90;;
3918;SDS011;1974;48.670;8.994;2022-07-29T02:38:27;1.07;;;0.70;;
3918;SDS011;1974;48.670;8.994;2022-07-29T02:41:15;0.80;;;0.80;;
3918;SDS011;1974;48.670;8.994;2022-07-29T02:43:45;0.80;;;0.80;;
3918;SDS011;1974;48.670;8.994;2022-07-29T02:46:21;1.30;;;0.90;;
3918;SDS011;1974;48.670;8.994;2022-07-29T02:48:55;1.30;;;1.20;;
3918;SDS011;1974;48.670;8.994;2022-07-29T02:51:27;2.10;;;0.70;;
3918;SDS011;1974;48.670;8.994;2022-07-29T02:53:59;1.00;;;0.90;;
3918;SDS011;1974;48.670;8.994;2022-07-29T02:56:30;1.43;;;1.10;;
3918;SDS011;1974;48.670;8.994;2022-07-29T02:59:01;1.20;;;1.10;;
3918;SDS011;1974;48.670;8.994;2022-07-29T03:01:31;1.30;;;1.20;;
3918;SDS011;1974;48.670;8.994;2022-07-29T03:04:00;2.37;;;1.57;;
3918;SDS011;1974;48.670;8.994;2022-07-29T03:06:31;0.57;;;0.57;;
3918;SDS011;1974;48.670;8.994;2022-07-29T03:09:00;1.03;;;1.00;;
3918;SDS011;1974;48.670;8.994;2022-07-29T03:11:28;1.20;;;1.10;;
3918;SDS011;1974;48.670;8.994;2022-07-29T03:13:55;1.30;;;0.93;;
3918;SDS011;1974;48.670;8.994;2022-07-29T03:16:22;0.80;;;0.70;;
3918;SDS011;1974;48.670;8.994;2022-07-29T03:18:50;1.70;;;1.00;;
3918;SDS011;1974;48.670;8.994;2022-07-29T03:21:18;1.10;;;0.90;;
3918;SDS011;1974;48.670;8.994;2022-07-29T03:23:46;1.07;;;0.80;;
3918;SDS011;1974;48.670;8.994;2022-07-29T03:26:13;0.80;;;0.80;;
3918;SDS011;1974;48.670;8.994;2022-07-29T03:28:40;0.80;;;0.80;;
3918;SDS011;1974;48.670;8.994;2022-07-29T03:31:06;0.73;;;0.70;;
3918;SDS011;1974;48.670;8.994;2022-07-29T03:33:33;1.27;;;1.03;;
3918;SDS011;1974;48.670;8.994;2022-07-29T03:36:00;0.80;;;0.80;;
3918;SDS011;1974;48.670;8.994;2022-07-29T03:38:27;2.30;;;1.00;;
3918;SDS011;1974;48.670;8.994;2022-07-29T03:40:58;1.03;;;0.80;;
3918;SDS011;1974;48.670;8.994;2022-07-29T03:43:29;0.60;;;0.60;;
3918;SDS011;1974;48.670;8.994;2022-07-29T03:45:58;1.13;;;1.00;;
3918;SDS011;1974;48.670;8.994;2022-07-29T03:48:28;2.03;;;0.90;;
3918;SDS011;1974;48.670;8.994;2022-07-29T03:50:58;1.43;;;1.33;;
3918;SDS011;1974;48.670;8.994;2022-07-29T03:53:26;1.70;;;0.77;;
3918;SDS011;1974;48.670;8.994;2022-07-29T03:55:53;2.40;;;0.83;;
3918;SDS011;1974;48.670;8.994;2022-07-29T03:58:26;0.70;;;0.70;;
3918;SDS011;1974;48.670;8.994;2022-07-29T04:00:53;0.70;;;0.70;;
3918;SDS011;1974;48.670;8.994;2022-07-29T04:03:21;0.93;;;0.80;;
3918;SDS011;1974;48.670;8.994;2022-07-29T04:05:57;0.80;;;0.80;;
3918;SDS011;1974;48.670;8.994;2022-07-29T04:08:25;1.13;;;0.90;;
3918;SDS011;1974;48.670;8.994;2022-07-29T04:10:52;0.80;;;0.80;;
3918;SDS011;1974;48.670;8.994;2022-07-29T04:13:18;0.83;;;0.83;;
3918;SDS011;1974;48.670;8.994;2022-07-29T04:15:47;0.83;;;0.83;;
3918;SDS011;1974;48.670;8.994;2022-07-29T04:18:13;1.20;;;1.10;;
3918;SDS011;1974;48.670;8.994;2022-07-29T04:20:40;0.47;;;0.47;;
3918;SDS011;1974;48.670;8.994;2022-07-29T04:23:07;1.47;;;0.70;;
3918;SDS011;1974;48.670;8.994;2022-07-29T04:25:36;1.23;;;0.80;;
3918;SDS011;1974;48.670;8.994;2022-07-29T04:28:03;0.90;;;0.77;;
3918;SDS011;1974;48.670;8.994;2022-07-29T04:30:30;1.10;;;0.70;;
3918;SDS011;1974;48.670;8.994;2022-07-29T04:32:59;0.60;;;0.50;;
3918;SDS011;1974;48.670;8.994;2022-07-29T04:35:27;0.97;;;0.50;;
3918;SDS011;1974;48.670;8.994;2022-07-29T04:37:54;0.60;;;0.50;;
3918;SDS011;1974;48.670;8.994;2022-07-29T04:40:20;0.60;;;0.60;;
3918;SDS011;1974;48.670;8.994;2022-07-29T04:42:47;1.00;;;0.70;;
3918;SDS011;1974;48.670;8.994;2022-07-29T04:45:14;0.80;;;0.80;;
3918;SDS011;1974;48.670;8.994;2022-07-29T04:47:41;1.50;;;1.23;;
3918;SDS011;1974;48.670;8.994;2022-07-29T04:50:09;0.57;;;0.57;;
3918;SDS011;1974;48.670;8.994;2022-07-29T04:52:36;3.23;;;1.30;;
3918;SDS011;1974;48.670;8.994;2022-07-29T04:55:04;1.03;;;0.90;;
3918;SDS011;1974;48.670;8.994;2022-07-29T04:57:32;1.03;;;0.70;;
3918;SDS011;1974;48.670;8.994;2022-07-29T04:59:59;1.33;;;0.97;;
3918;SDS011;1974;48.670;8.994;2022-07-29T05:02:25;0.80;;;0.80;;
3918;SDS011;1974;48.670;8.994;2022-07-29T05:04:52;1.00;;;0.90;;
3918;SDS011;1974;48.670;8.994;2022-07-29T05:07:20;0.57;;;0.57;;
3918;SDS011;1974;48.670;8.994;2022-07-29T05:09:47;1.40;;;0.70;;
3918;SDS011;1974;48.670;8.994;2022-07-29T05:12:14;0.80;;;0.63;;
3918;SDS011;1974;48.670;8.994;2022-07-29T05:14:40;0.70;;;0.50;;
3918;SDS011;1974;48.670;8.994;2022-07-29T05:17:07;0.80;;;0.70;;
3918;SDS011;1974;48.670;8.994;2022-07-29T05:19:34;1.23;;;0.83;;
3918;SDS011;1974;48.670;8.994;2022-07-29T05:22:01;1.27;;;0.50;;
3918;SDS011;1974;48.670;8.994;2022-07-29T05:24:29;0.60;;;0.60;;
3918;SDS011;1974;48.670;8.994;2022-07-29T05:26:55;0.80;;;0.70;;
3918;SDS011;1974;48.670;8.994;2022-07-29T05:29:22;0.47;;;0.47;;
3918;SDS011;1974;48.670;8.994;2022-07-29T05:31:49;0.73;;;0.70;;
3918;SDS011;1974;48.670;8.994;2022-07-29T05:34:17;0.60;;;0.60;;
3918;SDS011;1974;48.670;8.994;2022-07-29T05:36:44;0.60;;;0.60;;
3918;SDS011;1974;48.670;8.994;2022-07-29T05:39:11;0.77;;;0.77;;
3918;SDS011;1974;48.670;8.994;2022-07-29T05:41:40;0.53;;;0.53;;
3918;SDS011;1974;48.670;8.994;2022-07-29T05:44:06;0.80;;;0.63;;
3918;SDS011;1974;48.670;8.994;2022-07-29T05:46:33;1.23;;;0.73;;
3918;SDS011;1974;48.670;8.994;2022-07-29T05:49:00;1.90;;;1.00;;
3918;SDS011;1974;48.670;8.994;2022-07-29T05:51:27;0.73;;;0.73;;
3918;SDS011;1974;48.670;8.994;2022-07-29T05:53:54;1.57;;;1.13;;
3918;SDS011;1974;48.670;8.994;2022-07-29T05:56:21;0.80;;;0.80;;
3918;SDS011;1974;48.670;8.994;2022-07-29T05:58:49;8.97;;;1.20;;
3918;SDS011;1974;48.670;8.994;2022-07-29T06:01:16;2.00;;;1.00;;
3918;SDS011;1974;48.670;8.994;2022-07-29T06:03:43;1.33;;;0.97;;
3918;SDS011;1974;48.670;8.994;2022-07-29T06:06:10;1.03;;;0.90;;
3918;SDS011;1974;48.670;8.994;2022-07-29T06:08:37;1.13;;;1.00;;
3918;SDS011;1974;48.670;8.994;2022-07-29T06:11:05;0.80;;;0.80;;
3918;SDS011;1974;48.670;8.994;2022-07-29T06:13:33;0.97;;;0.80;;
3918;SDS011;1974;48.670;8.994;2022-07-29T06:16:01;1.00;;;0.80;;
3918;SDS011;1974;48.670;8.994;2022-07-29T06:18:29;1.60;;;1.00;;
3918;SDS011;1974;48.670;8.994;2022-07-29T06:20:56;0.90;;;0.77;;
3918;SDS011;1974;48.670;8.994;2022-07-29T06:23:23;0.80;;;0.77;;
3918;SDS011;1974;48.670;8.994;2022-07-29T06:25:50;1.13;;;1.00;;
3918;SDS011;1974;48.670;8.994;2022-07-29T06:28:16;2.13;;;1.30;;
3918;SDS011;1974;48.670;8.994;2022-07-29T06:30:43;1.40;;;1.03;;
3918;SDS011;1974;48.670;8.994;2022-07-29T06:33:17;1.23;;;1.10;;
3918;SDS011;1974;48.670;8.994;2022-07-29T06:35:44;1.50;;;1.40;;
3918;SDS011;1974;48.670;8.994;2022-07-29T06:38:12;1.20;;;1.10;;
3918;SDS011;1974;48.670;8.994;2022-07-29T06:40:40;1.37;;;1.17;;
3918;SDS011;1974;48.670;8.994;2022-07-29T06:43:26;1.87;;;1.30;;
3918;SDS011;1974;48.670;8.994;2022-07-29T06:45:54;1.90;;;1.20;;
3918;SDS011;1974;48.670;8.994;2022-07-29T06:48:22;1.87;;;1.30;;
3918;SDS011;1974;48.670;8.994;2022-07-29T06:50:49;1.03;;;1.03;;
3918;SDS011;1974;48.670;8.994;2022-07-29T06:53:16;1.60;;;1.03;;
3918;SDS011;1974;48.670;8.994;2022-07-29T06:55:43;1.13;;;1.00;;
3918;SDS011;1974;48.670;8.994;2022-07-29T06:58:10;2.50;;;1.03;;
3918;SDS011;1974;48.670;8.994;2022-07-29T07:00:39;1.37;;;1.10;;
3918;SDS011;1974;48.670;8.994;2022-07-29T07:03:10;1.03;;;0.93;;
3918;SDS011;1974;48.670;8.994;2022-07-29T07:05:39;1.30;;;1.20;;
3918;SDS011;1974;48.670;8.994;2022-07-29T07:08:05;0.80;;;0.80;;
3918;SDS011;1974;48.670;8.994;2022-07-29T07:10:33;1.17;;;1.13;;
3918;SDS011;1974;48.670;8.994;2022-07-29T07:12:59;2.20;;;1.30;;
3918;SDS011;1974;48.670;8.994;2022-07-29T07:15:26;2.93;;;1.77;;
3918;SDS011;1974;48.670;8.994;2022-07-29T07:17:53;1.37;;;1.17;;
3918;SDS011;1974;48.670;8.994;2022-07-29T07:23:12;1.53;;;1.10;;
3918;SDS011;1974;48.670;8.994;2022-07-29T07:25:39;1.73;;;1.53;;
3918;SDS011;1974;48.670;8.994;2022-07-29T07:28:07;1.63;;;1.53;;
3918;SDS011;1974;48.670;8.994;2022-07-29T07:30:33;1.43;;;1.13;;
3918;SDS011;1974;48.670;8.994;2022-07-29T07:33:00;5.70;;;1.80;;
3918;SDS011;1974;48.670;8.994;2022-07-29T07:35:27;1.90;;;1.00;;
3918;SDS011;1974;48.670;8.994;2022-07-29T07:37:55;1.70;;;1.50;;
3918;SDS011;1974;48.670;8.994;2022-07-29T07:40:22;1.50;;;1.40;;
3918;SDS011;1974;48.670;8.994;2022-07-29T07:42:50;1.97;;;1.70;;
3918;SDS011;1974;48.670;8.994;2022-07-29T07:45:16;1.52;;;1.35;;
3918;SDS011;1974;48.670;8.994;2022-07-29T07:47:43;1.40;;;1.13;;
3918;SDS011;1974;48.670;8.994;2022-07-29T07:50:10;1.53;;;1.43;;
3918;SDS011;1974;48.670;8.994;2022-07-29T07:52:45;1.87;;;1.30;;
3918;SDS011;1974;48.670;8.994;2022-07-29T07:55:14;1.83;;;1.58;;
3918;SDS011;1974;48.670;8.994;2022-07-29T07:57:41;2.17;;;1.40;;
3918;SDS011;1974;48.670;8.994;2022-07-29T08:00:08;1.75;;;1.25;;
3918;SDS011;1974;48.670;8.994;2022-07-29T08:02:36;2.60;;;1.35;;
3918;SDS011;1974;48.670;8.994;2022-07-29T08:05:04;1.92;;;1.48;;
3918;SDS011;1974;48.670;8.994;2022-07-29T08:07:31;1.52;;;1.42;;
3918;SDS011;1974;48.670;8.994;2022-07-29T08:09:58;1.42;;;1.33;;
3918;SDS011;1974;48.670;8.994;2022-07-29T08:12:26;1.73;;;1.63;;
3918;SDS011;1974;48.670;8.994;2022-07-29T08:14:53;1.45;;;1.35;;
3918;SDS011;1974;48.670;8.994;2022-07-29T08:17:20;2.17;;;2.00;;
3918;SDS011;1974;48.670;8.994;2022-07-29T08:19:46;1.70;;;1.60;;
3918;SDS011;1974;48.670;8.994;2022-07-29T08:22:14;2.47;;;1.48;;
3918;SDS011;1974;48.670;8.994;2022-07-29T08:24:41;2.10;;;1.95;;
3918;SDS011;1974;48.670;8.994;2022-07-29T08:27:17;2.63;;;1.80;;
3918;SDS011;1974;48.670;8.994;2022-07-29T08:29:46;1.45;;;1.10;;
3918;SDS011;1974;48.670;8.994;2022-07-29T08:32:13;1.80;;;1.70;;
3918;SDS011;1974;48.670;8.994;2022-07-29T08:34:40;1.52;;;1.42;;
3918;SDS011;1974;48.670;8.994;2022-07-29T08:37:09;1.73;;;1.63;;
3918;SDS011;1974;48.670;8.994;2022-07-29T08:39:36;1.88;;;1.77;;
3918;SDS011;1974;48.670;8.994;2022-07-29T08:42:02;1.48;;;1.38;;
3918;SDS011;1974;48.670;8.994;2022-07-29T08:44:29;2.17;;;1.67;;
3918;SDS011;1974;48.670;8.994;2022-07-29T08:47:00;2.47;;;1.92;;
3918;SDS011;1974;48.670;8.994;2022-07-29T08:49:27;5.53;;;1.88;;
3918;SDS011;1974;48.670;8.994;2022-07-29T08:51:53;2.28;;;1.73;;
3918;SDS011;1974;48.670;8.994;2022-07-29T08:54:23;2.08;;;1.70;;
3918;SDS011;1974;48.670;8.994;2022-07-29T08:56:50;1.77;;;1.67;;
3918;SDS011;1974;48.670;8.994;2022-07-29T08:59:17;2.20;;;1.80;;
3918;SDS011;1974;48.670;8.994;2022-07-29T09:01:46;1.58;;;1.45;;
3918;SDS011;1974;48.670;8.994;2022-07-29T09:04:15;1.88;;;1.77;;
3918;SDS011;1974;48.670;8.994;2022-07-29T09:06:44;1.80;;;1.70;;
3918;SDS011;1974;48.670;8.994;2022-07-29T09:09:13;1.77;;;1.67;;
3918;SDS011;1974;48.670;8.994;2022-07-29T09:11:40;6.18;;;2.10;;
3918;SDS011;1974;48.670;8.994;2022-07-29T09:14:07;1.70;;;1.60;;
3918;SDS011;1974;48.670;8.994;2022-07-29T09:16:46;2.45;;;1.77;;
3918;SDS011;1974;48.670;8.994;2022-07-29T09:19:23;2.83;;;1.67;;
3918;SDS011;1974;48.670;8.994;2022-07-29T09:21:52;3.42;;;1.73;;
3918;SDS011;1974;48.670;8.994;2022-07-29T09:24:27;1.73;;;1.63;;
3918;SDS011;1974;48.670;8.994;2022-07-29T09:27:04;1.60;;;1.50;;
3918;SDS011;1974;48.670;8.994;2022-07-29T09:29:35;1.73;;;1.48;;
3918;SDS011;1974;48.670;8.994;2022-07-29T09:32:05;1.45;;;1.35;;
3918;SDS011;1974;48.670;8.994;2022-07-29T09:34:36;1.90;;;1.80;;
3918;SDS011;1974;48.670;8.994;2022-07-29T09:37:03;1.75;;;1.52;;
3918;SDS011;1974;48.670;8.994;2022-07-29T09:39:31;2.45;;;1.88;;
3918;SDS011;1974;48.670;8.994;2022-07-29T09:41:59;2.10;;;1.90;;
3918;SDS011;1974;48.670;8.994;2022-07-29T09:44:26;1.55;;;1.33;;
3918;SDS011;1974;48.670;8.994;2022-07-29T09:47:08;1.88;;;1.77;;
3918;SDS011;1974;48.670;8.994;2022-07-29T09:49:49;2.25;;;1.98;;
3918;SDS011;1974;48.670;8.994;2022-07-29T09:52:17;2.03;;;1.88;;
3918;SDS011;1974;48.670;8.994;2022-07-29T09:54:44;2.28;;;2.08;;
3918;SDS011;1974;48.670;8.994;2022-07-29T09:57:21;1.58;;;1.48;;
3918;SDS011;1974;48.670;8.994;2022-07-29T09:59:55;1.95;;;1.75;;
3918;SDS011;1974;48.670;8.994;2022-07-29T10:02:22;1.65;;;1.55;;
3918;SDS011;1974;48.670;8.994;2022-07-29T10:04:56;2.08;;;1.88;;
3918;SDS011;1974;48.670;8.994;2022-07-29T10:07:23;2.38;;;1.83;;
3918;SDS011;1974;48.670;8.994;2022-07-29T10:09:52;1.40;;;1.30;;
3918;SDS011;1974;48.670;8.994;2022-07-29T10:12:21;1.92;;;1.80;;
3918;SDS011;1974;48.670;8.994;2022-07-29T10:14:48;1.77;;;1.67;;
3918;SDS011;1974;48.670;8.994;2022-07-29T10:17:16;2.60;;;2.38;;
3918;SDS011;1974;48.670;8.994;2022-07-29T10:19:44;2.03;;;1.92;;
3918;SDS011;1974;48.670;8.994;2022-07-29T10:22:12;2.03;;;1.75;;
3918;SDS011;1974;48.670;8.994;2022-07-29T10:24:39;1.80;;;1.70;;
3918;SDS011;1974;48.670;8.994;2022-07-29T10:27:06;1.52;;;1.42;;
3918;SDS011;1974;48.670;8.994;2022-07-29T10:29:34;1.30;;;1.20;;
3918;SDS011;1974;48.670;8.994;2022-07-29T10:32:10;5.75;;;1.65;;
3918;SDS011;1974;48.670;8.994;2022-07-29T10:34:50;2.25;;;2.05;;
3918;SDS011;1974;48.670;8.994;2022-07-29T10:37:28;2.40;;;1.80;;
3918;SDS011;1974;48.670;8.994;2022-07-29T10:40:06;1.95;;;1.67;;
3918;SDS011;1974;48.670;8.994;2022-07-29T10:42:58;1.10;;;1.10;;
3918;SDS011;1974;48.670;8.994;2022-07-29T10:45:32;1.08;;;1.08;;
3918;SDS011;1974;48.670;8.994;2022-07-29T10:48:03;2.58;;;1.63;;
3918;SDS011;1974;48.670;8.994;2022-07-29T10:53:20;12.80;;;1.90;;
3918;SDS011;1974;48.670;8.994;2022-07-29T10:55:48;3.13;;;1.48;;
3918;SDS011;1974;48.670;8.994;2022-07-29T10:58:17;1.40;;;1.30;;
3918;SDS011;1974;48.670;8.994;2022-07-29T11:00:45;1.10;;;1.00;;
3918;SDS011;1974;48.670;8.994;2022-07-29T11:06:12;1.27;;;1.17;;
3918;SDS011;1974;48.670;8.994;2022-07-29T11:08:41;1.13;;;1.03;;
3918;SDS011;1974;48.670;8.994;2022-07-29T11:14:06;2.33;;;1.30;;
3918;SDS011;1974;48.670;8.994;2022-07-29T11:19:28;3.47;;;1.17;;
3918;SDS011;1974;48.670;8.994;2022-07-29T11:21:55;0.93;;;0.67;;
3918;SDS011;1974;48.670;8.994;2022-07-29T11:24:24;1.10;;;0.97;;
3918;SDS011;1974;48.670;8.994;2022-07-29T11:27:13;2.20;;;1.07;;
3918;SDS011;1974;48.670;8.994;2022-07-29T11:29:48;0.90;;;0.90;;
3918;SDS011;1974;48.670;8.994;2022-07-29T11:32:18;2.03;;;1.37;;
3918;SDS011;1974;48.670;8.994;2022-07-29T11:34:46;2.30;;;1.10;;
3918;SDS011;1974;48.670;8.994;2022-07-29T11:37:20;1.23;;;1.13;;
3918;SDS011;1974;48.670;8.994;2022-07-29T11:42:39;1.00;;;0.83;;
3918;SDS011;1974;48.670;8.994;2022-07-29T11:45:08;1.90;;;1.27;;
3918;SDS011;1974;48.670;8.994;2022-07-29T11:47:38;2.40;;;1.63;;
3918;SDS011;1974;48.670;8.994;2022-07-29T11:50:08;0.80;;;0.80;;
3918;SDS011;1974;48.670;8.994;2022-07-29T11:52:36;1.23;;;1.10;;
3918;SDS011;1974;48.670;8.994;2022-07-29T11:55:11;1.03;;;0.93;;
3918;SDS011;1974;48.670;8.994;2022-07-29T11:57:46;1.07;;;0.90;;
3918;SDS011;1974;48.670;8.994;2022-07-29T12:00:20;0.83;;;0.70;;
3918;SDS011;1974;48.670;8.994;2022-07-29T12:02:56;1.10;;;0.97;;
3918;SDS011;1974;48.670;8.994;2022-07-29T12:05:30;1.30;;;1.20;;
3918;SDS011;1974;48.670;8.994;2022-07-29T12:08:04;1.30;;;0.90;;
3918;SDS011;1974;48.670;8.994;2022-07-29T12:10:33;1.13;;;0.97;;
3918;SDS011;1974;48.670;8.994;2022-07-29T12:13:00;2.30;;;1.63;;
3918;SDS011;1974;48.670;8.994;2022-07-29T12:15:26;0.60;;;0.60;;
3918;SDS011;1974;48.670;8.994;2022-07-29T12:17:53;1.30;;;1.10;;
3918;SDS011;1974;48.670;8.994;2022-07-29T12:20:24;0.77;;;0.77;;
3918;SDS011;1974;48.670;8.994;2022-07-29T12:22:52;1.30;;;0.93;;
3918;SDS011;1974;48.670;8.994;2022-07-29T12:25:19;1.93;;;1.57;;
3918;SDS011;1974;48.670;8.994;2022-07-29T12:27:48;1.43;;;1.33;;
3918;SDS011;1974;48.670;8.994;2022-07-29T12:30:33;1.60;;;1.50;;
3918;SDS011;1974;48.670;8.994;2022-07-29T12:33:01;1.60;;;1.20;;
3918;SDS011;1974;48.670;8.994;2022-07-29T12:35:35;2.90;;;1.47;;
3918;SDS011;1974;48.670;8.994;2022-07-29T12:38:02;1.17;;;0.90;;
3918;SDS011;1974;48.670;8.994;2022-07-29T12:40:29;1.80;;;1.47;;
3918;SDS011;1974;48.670;8.994;2022-07-29T12:43:10;0.97;;;0.87;;
3918;SDS011;1974;48.670;8.994;2022-07-29T12:45:39;1.33;;;1.00;;
3918;SDS011;1974;48.670;8.994;2022-07-29T12:48:07;1.57;;;1.17;;
3918;SDS011;1974;48.670;8.994;2022-07-29T12:50:35;1.50;;;1.40;;
3918;SDS011;1974;48.670;8.994;2022-07-29T12:53:09;1.20;;;1.10;;
3918;SDS011;1974;48.670;8.994;2022-07-29T12:55:38;1.30;;;1.20;;
3918;SDS011;1974;48.670;8.994;2022-07-29T12:58:06;2.03;;;1.83;;
3918;SDS011;1974;48.670;8.994;2022-07-29T13:00:34;2.40;;;1.70;;
3918;SDS011;1974;48.670;8.994;2022-07-29T13:03:01;1.63;;;1.37;;
3918;SDS011;1974;48.670;8.994;2022-07-29T13:08:16;2.47;;;1.40;;
3918;SDS011;1974;48.670;8.994;2022-07-29T13:10:44;1.53;;;1.43;;
3918;SDS011;1974;48.670;8.994;2022-07-29T13:13:12;2.63;;;1.43;;
3918;SDS011;1974;48.670;8.994;2022-07-29T13:15:42;1.67;;;1.40;;
3918;SDS011;1974;48.670;8.994;2022-07-29T13:18:28;1.63;;;1.53;;
3918;SDS011;1974;48.670;8.994;2022-07-29T13:20:55;3.43;;;1.50;;
3918;SDS011;1974;48.670;8.994;2022-07-29T13:23:22;1.53;;;1.40;;
3918;SDS011;1974;48.670;8.994;2022-07-29T13:25:49;2.90;;;1.90;;
3918;SDS011;1974;48.670;8.994;2022-07-29T13:28:16;4.33;;;1.93;;
3918;SDS011;1974;48.670;8.994;2022-07-29T13:30:44;4.63;;;1.90;;
3918;SDS011;1974;48.670;8.994;2022-07-29T13:33:11;5.67;;;1.20;;
3918;SDS011;1974;48.670;8.994;2022-07-29T13:35:38;2.63;;;2.03;;
3918;SDS011;1974;48.670;8.994;2022-07-29T13:38:04;1.50;;;1.40;;
3918;SDS011;1974;48.670;8.994;2022-07-29T13:40:32;2.40;;;1.40;;
3918;SDS011;1974;48.670;8.994;2022-07-29T13:43:00;1.93;;;1.40;;
3918;SDS011;1974;48.670;8.994;2022-07-29T13:45:27;2.20;;;1.63;;
3918;SDS011;1974;48.670;8.994;2022-07-29T13:47:55;1.60;;;1.30;;
3918;SDS011;1974;48.670;8.994;2022-07-29T13:50:22;1.20;;;1.13;;
3918;SDS011;1974;48.670;8.994;2022-07-29T13:52:48;2.03;;;1.87;;
3918;SDS011;1974;48.670;8.994;2022-07-29T13:55:16;2.47;;;1.83;;
3918;SDS011;1974;48.670;8.994;2022-07-29T13:57:42;3.73;;;1.90;;
3918;SDS011;1974;48.670;8.994;2022-07-29T14:00:09;2.30;;;1.97;;
3918;SDS011;1974;48.670;8.994;2022-07-29T14:02:37;2.53;;;1.87;;
3918;SDS011;1974;48.670;8.994;2022-07-29T14:05:06;2.83;;;1.93;;
3918;SDS011;1974;48.670;8.994;2022-07-29T14:07:34;3.53;;;1.90;;
3918;SDS011;1974;48.670;8.994;2022-07-29T14:10:01;3.13;;;1.83;;
3918;SDS011;1974;48.670;8.994;2022-07-29T14:12:29;2.50;;;1.80;;
3918;SDS011;1974;48.670;8.994;2022-07-29T14:14:56;2.13;;;1.90;;
3918;SDS011;1974;48.670;8.994;2022-07-29T14:17:22;2.60;;;2.20;;
3918;SDS011;1974;48.670;8.994;2022-07-29T14:19:49;4.17;;;2.60;;
3918;SDS011;1974;48.670;8.994;2022-07-29T14:22:17;2.30;;;1.60;;
3918;SDS011;1974;48.670;8.994;2022-07-29T14:24:45;2.40;;;1.70;;
3918;SDS011;1974;48.670;8.994;2022-07-29T14:27:11;2.73;;;1.63;;
3918;SDS011;1974;48.670;8.994;2022-07-29T14:29:38;3.03;;;1.97;;
3918;SDS011;1974;48.670;8.994;2022-07-29T14:32:05;3.47;;;2.00;;
3918;SDS011;1974;48.670;8.994;2022-07-29T14:34:32;2.17;;;1.97;;
3918;SDS011;1974;48.670;8.994;2022-07-29T14:36:59;3.40;;;1.67;;
3918;SDS011;1974;48.670;8.994;2022-07-29T14:39:29;2.20;;;1.60;;
3918;SDS011;1974;48.670;8.994;2022-07-29T14:41:55;2.27;;;2.07;;
3918;SDS011;1974;48.670;8.994;2022-07-29T14:44:22;2.43;;;1.77;;
3918;SDS011;1974;48.670;8.994;2022-07-29T14:46:54;1.60;;;1.50;;
3918;SDS011;1974;48.670;8.994;2022-07-29T14:49:20;8.50;;;1.80;;
3918;SDS011;1974;48.670;8.994;2022-07-29T14:51:47;2.50;;;1.60;;
3918;SDS011;1974;48.670;8.994;2022-07-29T14:54:15;2.10;;;1.77;;
3918;SDS011;1974;48.670;8.994;2022-07-29T14:56:43;1.73;;;1.63;;
3918;SDS011;1974;48.670;8.994;2022-07-29T14:59:10;2.23;;;1.63;;
3918;SDS011;1974;48.670;8.994;2022-07-29T15:01:36;2.97;;;2.27;;
3918;SDS011;1974;48.670;8.994;2022-07-29T15:04:03;2.40;;;2.23;;
3918;SDS011;1974;48.670;8.994;2022-07-29T15:06:30;4.40;;;2.20;;
3918;SDS011;1974;48.670;8.994;2022-07-29T15:08:57;2.40;;;1.87;;
3918;SDS011;1974;48.670;8.994;2022-07-29T15:11:23;2.43;;;2.23;;
3918;SDS011;1974;48.670;8.994;2022-07-29T15:13:52;2.33;;;2.10;;
3918;SDS011;1974;48.670;8.994;2022-07-29T15:16:18;3.00;;;1.87;;
3918;SDS011;1974;48.670;8.994;2022-07-29T15:18:45;2.57;;;2.20;;
3918;SDS011;1974;48.670;8.994;2022-07-29T15:21:12;6.33;;;1.97;;
3918;SDS011;1974;48.670;8.994;2022-07-29T15:23:40;2.53;;;2.33;;
3918;SDS011;1974;48.670;8.994;2022-07-29T15:26:06;2.70;;;1.60;;
3918;SDS011;1974;48.670;8.994;2022-07-29T15:28:33;2.83;;;2.30;;
3918;SDS011;1974;48.670;8.994;2022-07-29T15:31:01;2.03;;;1.70;;
3918;SDS011;1974;48.670;8.994;2022-07-29T15:33:28;2.17;;;1.40;;
3918;SDS011;1974;48.670;8.994;2022-07-29T15:35:55;2.57;;;2.00;;
3918;SDS011;1974;48.670;8.994;2022-07-29T15:38:22;2.90;;;2.00;;
3918;SDS011;1974;48.670;8.994;2022-07-29T15:40:49;1.80;;;1.70;;
3918;SDS011;1974;48.670;8.994;2022-07-29T15:43:16;2.33;;;1.63;;
3918;SDS011;1974;48.670;8.994;2022-07-29T15:45:43;2.33;;;2.07;;